今日のアクセス数

    岡山グライダークラブ活動状況掲示板あなたは無料カウンター人目の訪問者です

岡山グライダークラブ
岡山市浦安南町639-1 岡南飛行場
 使用機:シャイベ式 SF25C型 ファルケ   JA2330
      ヴァレンティン式17E型 タイフーン  JA2342
 練習日:毎日曜日  クラブルーム:電話 086-265-1810
この掲示板は岡山グライダークラブの活動状況をお知らせする掲示板です。
!!!この掲示板は投稿規制をしています。!!!
クラブ関連各種情報は 岡山グライダークラブクラブルーム      を       .
  ブリーフイング情報は  岡山グライダークラブブリーフィングルーム  をご覧下さい。 .
※写真はクリックすると拡大して見ることが出来ます。
岡南飛行場へのアクセス等は 岡南飛行場管理事務所 をご覧ください。
クラブの ホームページ ができました。

ページ 1 (1〜10)ホームページへ戻る

10月14日
by OGC at 2018/10/14(日) 23:05:06 No.20181014230339 コメント】  削除 引用
1187 x 890 x 92,885バイト <この画像は大きいので別画面で表示します>
No.1

10月14日
本日の参加者
  会員      10名
  その他      1名


@本日の様子




METAR
RJBK 140100Z 18003KT 140V210 40KM FEW020CU 17/13 Q1021 A3017
RKOB 140100Z VRB02KT 9999 FEW025 19/13 Q1021
RJOT 140100Z 32004KT 260V010 9999 FEW025 SCT/// 19/14 Q1021
RJOA 12003KT 080V190 9999 FEW020 BKN/// 18/10 Q1021
TAF
RJOB 132313Z 1400/1506 01005KT 9999 FEW025 SCT045
RJOT 132305Z 1400/1506 33004KT 9999 FEW025
     BECMG 1408/1410 15006KT
RJOA 132306Z 1400/1506 15004KT 9999 FEW030 SCT045


本日は穏やかな天候で、耐空検査が完了したファルケはいつも通り訓練フライトに大活躍でした。
一方、タイフーンは社内検査が終了し、来週の耐空検査が済めば通常訓練となります。



解散    18:00

1番機  12:10離陸 撤収機  16:45着陸 

SF25C JA2330 ファルケ     07Flt.2h40min  
17E   JA2342 タイフーン    01Flt.0h20min  
合計                    08Flt.3h00min

 データ復旧‥IBM‥ino    DELLデータ復旧・ino

10月07日
by OGC at 2018/10/7(日) 19:41:02 No.20181007192208 コメント】  削除 引用
1024 x 768 x 79,183バイト
No.1

10月07日
本日の参加者
  会員       8名
  その他      0名


@本日の様子




METAR
RJBK 070300Z 17003KT 080V210 25KM FEW025CU SCT035 BKN060SC 26/18 Q1013 A2993
RKOB 070200Z VRB01KT 9999 FEW020 SCT040 BKN070 24/18 Q1014
RJOT 070200Z 27005KT 220V340 9999 FEW010 SCT025 BKN060 24/20 Q1015
RJOA 070200Z 02003KT 300V110 9999 FEW015 SCT030 BKN060 22/17 Q1016
TAF
RJOB 062313Z 0700/0806 03004KT 9999 FEW020 BKN040
RJOT 062309Z 0700/0806 01005KT 9999 FEW015 BKN050
          BECMG 0718/0721 33004KT
RJOA 062306Z 0700/0806 32005KT 9999 FEW025 BKN045


本日は、前線の影響で朝方、雨模様でしたが、前線も過ぎ去り風も穏やかな練習日和になりました。
タイフーンは先週同様、耐空検査のため整備、ファルケは耐空検査整備が終わり、社内検査フライト、耐空検査を行い無事合格しました。来週からファルケは通常訓練になります。
また、当クラブから航空大学校に行っていた会員が就職の内定報告に来所してくれました。来年にはラインのコーパイとして乗務しているんでしょうね。


解散    18:00

1番機  14:50離陸 撤収機  17:05着陸 

SF25C JA2330 ファルケ     02Flt.1h05min  
17E   JA2342 タイフーン    00Flt.0h00min  
合計                    02Flt.1h05min

9月23日
by OGC at 2018/9/23(日) 20:44:57 No.20180923204028 コメント】  削除 引用
1024 x 768 x 105,009バイト
No.1

09月23日
本日の参加者
  会員      14名
  その他      1名


@本日の様子




METAR
RJBK 230100Z VRB02KT 30KM FEW025CU SCT050SC BKN130AC 24/19 Q1017 A3005
RKOB 230100Z 14003KT 070V210 9999 FEW010 BKN/// 22/19 Q1018
RJOT 230100Z 07005KT 040V110 9999 FEW015 SCT140 BKN160 23/20 Q1018
RJOA 230100Z VRB01KT 9999 FEW025 BKN180 BKN/// 22/14 Q1018
TAF
RJOB 222309Z 2300/2406 12004KT 9999 FEW025
     BECMG 2302/2304 18005KT
     BECMG 2309/2311 34004KT
RJOT  222307Z 2300/2406 04007KT 9999 FEW025
     BECMG 2318/2321 28005KT
RJOA 222305Z 2300/2406 11004KT 9999 FEW035
     BECMG 2309/2311 32005KT
     BECMG 2400/2403 14005KT


本日は前線が南下し過ごしやすい気温で、風もほとんどない訓練日和でした。
岡南飛行場ではヘリや飛行機がTGLを繰り返していましたが、それを横目にタイフーンとファルケの耐空検査前の整備を行いました。
タイフーンは洗機場で洗機し色白に、ファルケは各部の測定、消耗品の取替等を行い順調に作業が進み、来週には試験飛行、再来週には通常訓練に復帰出来る見込みです。



解散    16:45

本日のフライトはありません。

9月16日
by OGC at 2018/9/16(日) 22:06:31 No.20180916220139 コメント】  削除 引用
1024 x 768 x 52,679バイト
No.1

09月16日
本日の参加者
  会員      14名
  その他      1名


@本日の様子




METAR
RJBK 020100Z 08005KT 25KM FEW020CU SCT020 BKN/// 26/19 Q1011 A2987
RKOB 160100Z 24006KT 210V280 9999 FEW010 SCT020 BKN060 26/23 Q1015
RJOT 160100Z 25008KT 220V290 9999 FEW020 SCT025 27/23 Q1015
RJOA 160100Z 22003KT 160V280 9999 FEW008 SCT015 BKN020 24/21 Q1016
TAF
RJOB 152305Z 1600/1706 22004KT 9999 FEW015
       TEMPO 1604/1609 -TSRA FEW008 SCT012 BKN020 FEW020CB
RJOT 152308Z 1600/1706 26010KT 9999 FEW025 SCT040
       BECMG 1612/1615 20005KT
       BECMG 1700/1703 27010KT
RJOA 152309Z 1600/1706 22005KT 9999 FEW010 SCT025



本日は、前線が北上した影響で、また、暑さが戻ってきました。
タイフーンは先週同様、耐空検査のため整備、ファルケは耐空検査整備入り前のフライトのため、短いフライトを11回もこなしていました。。
岡南飛行場は、雨ばかりで飛びたくて我慢していた人が多いのか、沢山離発着していました。


解散    17:00

1番機  11:25離陸 撤収機  16:40着陸 

SF25C JA2330 ファルケ     11Flt.1h55min  
17E   JA2342 タイフーン    00Flt.0h00min  
合計                    11Flt.1h55min
9月9日
by OGC at 2018/9/9(日) 18:07:48 No.20180909180219 コメント】  削除 引用
1024 x 768 x 85,231バイト
No.1

09月09日
本日の参加者
  会員       8名
  その他      0名


@教育用機体



METAR
RKOB 090000Z 34008KT 300V020 4500 -SHRA BR BCFG FEW000 SCT006 BKN010 21/20 Q1013
RJOT 090000Z 11002KT 8000 -SHRA FEW001 SCT025 BKN100 21/21 Q1012
RJOA 090000Z 36008KT 320V030 3500 SHRA BCFG BR FEW000 SCT020 BKN030 19/17 Q1014
TAF
RJOB 082308Z 0900/1006 04005KT 4000 -SHRA BR FEW005 BKN008 BKN015
     TEMPO 0900/0906 1500 TSRA BR BCFG FEW000 SCT003 BKN005 FEW020CB
     TEMPO 0906/0915 2000 SHRA BR BCFG FEW000 SCT003 BKN005
     BECMG 0908/0910 25006KT
     BECMG 0921/1000 9999 NSW FEW015 SCT035
RJOT 082310Z 0900/1006 07007KT 2000 -SHRA BR FEW001 SCT005 BKN008
     TEMPO 0900/0906 0500 +TSRA FG FEW000 BKN003 BKN005 FEW015CB
     BECMG 0905/0907 26006KT
     TEMPO 0906/0912 0800 SHRA FG FEW000 BKN005 BKN008
     BECMG 1000/1003 7000 NSW FEW008 SCT010 BKN020
RJOA 082307Z 0900/1006 33005KT 3000 -SHRA BR FEW002 BKN008 BKN015
     TEMPO 0900/0904 0700 +TSRA FG FEW000 BKN003 BKN005 FEW015CB
     TEMPO 0904/0909 1500 SHRA BR BCFG FEW000 BKN005 BKN008
     BECMG 0912/0915 3500 -SHRA BR
     TEMPO 0918/1000 1500 -SHRA BR BCFG FEW000 SCT002 BKN005
     BECMG 1000/1003 9999 NSW FEW010 SCT015 BKN025


本日は、前線や湿った空気の影響で雨が降りつづいたことから、格納庫でタイフーンの整備作業やクラブルームでは近況や将来の機体の話で盛り上がっていました。


解散    16:00

本日のフライトはありません。

09月02日
by OGC at 2018/9/2(日) 19:26:04 No.20180902192250 コメント】  削除 引用
1024 x 768 x 73,851バイト
No.1

09月02日
本日の参加者
  会員      10名
  その他      3名


@本日の様子




METAR
RJBK 020100Z 08005KT 25KM FEW020CU SCT020 BKN/// 26/19 Q1011 A2987
RKOB 020100Z 04003KT 330V080 9999 FEW020 BKN030 24/19 Q1012
RJOT 020100Z 06006KT 040V100 9999 FEW010 BKN/// 25/22 Q1012
RJOA 020100Z 14006KT 090V190 9999 FEW010 BKN015 24/19 Q1012
TAF
RJOB 012305Z 0200/0306 14006KT 9999 FEW025
RJOT 012305Z 0200/0306 06009KT 9999 FEW020 SCT060
RJOA 012306Z 0200/0306 15006KT 9999 FEW020 SCT030



本日は、台風の影響もあり、少し涼しくなりました。台風も悪いことばかりではないですね。
タイフーンは耐空検査のため整備、ファルケはいつも通り訓練フライトでした。
サーマルは3000ft程度まで、まだまだ、上りの悪い状態です。

解散    17:00

1番機  11:40離陸 撤収機  16:15着陸 

SF25C JA2330 ファルケ     05Flt.1h50min  
17E   JA2342 タイフーン    00Flt.0h00min  
合計                    05Flt.1h50min
8月26日
by OGC at 2018/8/26(日) 23:22:30 No.20180826231903 コメント】  削除 引用
1024 x 768 x 67,462バイト
No.1

08月26日
本日の参加者
  会員      10名
  その他      1名


@本日の様子




METAR
RJBK 260000Z 17003KT 120V200 30KM FEW020CU 30/21 Q1014 A2995
RKOB 260000Z 24006KT 9999 FEW015 29/22 Q1015
RJOT 260000Z VRB02KT 9999 FEW020 29/22 Q1015
RJOA 260000Z 24006KT 170V280 9999 FEW015 BKN025 29/20 Q1016
TAF
RJOB 252313Z 2600/2706 22008KT 9999 FEW025 SCT040
RJOT 252310Z 2600/2706 33004KT 9999 FEW025 SCT045
         BECMG 2602/2604 04006KT
         BECMG 2621/2700 29006KT
RJOA 252305Z 2600/2706 20008KT 9999 FEW030
         TEMPO 2618/2700 4000 BR BCFG FEW000 BKN007 BKN015


本日も暑い日で、フライトは、いつも通り体験飛行、TGL、ソロフライト等です。
また、本日のフライト終了後、年1回の耐空検査の整備を開始しましたので、来週からしばらく整備作業となります。


解散    17:00

1番機  11:15離陸 撤収機  16:05着陸 

SF25C JA2330 ファルケ     05Flt.1h50min  
17E   JA2342 タイフーン    03Flt.1h20min  
合計                    08Flt.3h10min
8月19日
by OGC at 2018/8/22(水) 20:47:02 No.20180822204014 コメント】  削除 引用
1477 x 1108 x 103,818バイト <この画像は大きいので別画面で表示します>
No.1

08月19日
本日の参加者
  会員      8名
  その他      0名


@本日の様子




METAR
RJBK 190100Z 10010KT 060V130 30KM FEW030CU BKN///  29/17 Q1013 A2992
RKOB 190100Z 10010KT 9999 FEW020 SCT030 BKN/// 26/18 Q1013
RJOT 190100Z 08008KT 050V120 9999 FEW025 BKN/// 28/18 Q1013
RJOA 190100Z 12006KT 080V180 9999 FEW025 BKN/// 25/18 Q1014
TAF
RJOB 182307Z 1900/2006 11008KT 9999 FEW025
RJOT 182308Z 1900/2006 06010KT 9999 FEW025
       BECMG 1909/1911 15006KT
       BECMG 2000/2003 07010KT
RJOA 182305Z 1900/2006 14007KT 9999 FEW025

本日は、盆前と比べると気温が少し低くなり、過ごしやすくなりました。
フライトは、コンディションがよく、みんなエンジンカットでよく飛んでいました。


解散    16:00

1番機  11:05離陸 撤収機  15:30着陸 

SF25C JA2330 ファルケ     07Flt.2h25min  
17E   JA2342 タイフーン    02Flt.0h55min  
合計                    09Flt.3h20min
8月5日
by OGC at 2018/8/5(日) 23:29:51 No.20180805232605 コメント】  削除 引用
1024 x 768 x 51,903バイト
No.1

08月05日
本日の参加者
  会員     11名
  その他      2名


@本日の様子



METAR
RJBK 050100Z 17004KT 140V220 10KM FEW030CU 32/24 Q1007 A2974
RKOB 050100Z 21004KT 130V260 9999 FEW025 SCT/// 31/24 Q1008
RJOT 050100Z 30004KT 220V020 9999 FEW030 32/25 Q1008
RJOA 050100Z VRB03KT 9999 FEW025 31/20 Q1009
TAF
RJOB 042305Z 0500/0606 20007KT 9999 FEW030 SCT045
     BECMG 0510/0512 35004KT
RJOT 042307Z 0500/0606 28008KT 9999 FEW030 SCT050
RJOA 042306Z 0500/0606 19006KT 9999 FEW025 SCT040

本日も暑〜い一日。フライトは、熱中症に気を付けながら、いつもの着陸訓練に、サーマルを探して今日も飛び回っていました。
また、先週、会員の教育証明の実地試験があり、見事、合格しました。


解散    17:12

1番機  11:55離陸 撤収機  16:25着陸 

SF25C JA2330 ファルケ     04Flt.1h45min  
17E   JA2342 タイフーン    03Flt.1h05min  
合計                    07Flt.2h50min
7月22日
by OGC at 2018/7/22(日) 22:44:08 No.20180722223426 コメント】  削除 引用
1024 x 768 x 74,784バイト
No.1

07月22日
本日の参加者
  会員     14名
  その他      2名


@本日の様子



METAR
RJBK 220100Z 18003KT 130V250 30KM FEW025CU 31/22 Q1011 A2986
RKOB 220100Z 07003KT 030V130 9999 FEW010 SCT020 29/24 Q1012
RJOT 220100Z VRB05KT 9999 FEW025 31/25 Q1012
RJOA 220100Z VRB03KT 9999 FEW015 SCT020 30/23 Q1013
TAF
RJOB 212308Z 2200/2306 10004KT 9999 FEW020
         BECMG 2201/2203 19005KT
         BECMG 2212/2215 04004KT
          BECMG 2300/2303 21005KT
RJOT 212314Z 2200/2306 03005KT 9999 FEW025 SCT035
          TEMPO 2206/2209 TS FEW015 FEW020CB SCT025 BKN035
          BECMG 2208/2210 20005KTT
RJOA 212307Z 2200/2306 15004KT 9999 FEW020 SCT035
          BECMG 2201/2203 22005KT

本日も暑〜い一日で積雲ができ、先週よりはサーマルが期待できる一日でした。そこでフライトは、いつもの着陸訓練に、一人がエンジンカットランディングをすると他にも伝染しているようでした。


解散    18:08

1番機  11:00離陸 撤収機  17:40着陸 

SF25C JA2330 ファルケ     08Flt.3h20min  
17E   JA2342 タイフーン    05Flt.1h30min  
合計                    13Flt.4h50min

 データ復旧‥IBM‥ino    DELLデータ復旧・ino

ホームページへ 全 46 件 [ 1 2 3 4 5 ]

モータースポーツ | 管理者へメール | お知らせ | 一括削除
携帯から使う方法 | ヘルプ | 利用規約 | 違反報告 | 管理パネル



- 無料レンタル掲示板 -